createdAt,value
2019-06-15T00:00:46.979Z,22.9
2019-06-15T00:01:47.293Z,22.94
2019-06-15T00:02:47.044Z,22.87
2019-06-15T00:03:47.058Z,23
2019-06-15T00:04:46.831Z,22.87
2019-06-15T00:05:47.120Z,22.93
2019-06-15T00:06:47.220Z,22.91
2019-06-15T00:07:46.905Z,22.88
2019-06-15T00:08:47.190Z,22.83
2019-06-15T00:09:47.216Z,22.81
2019-06-15T00:10:46.979Z,22.84
2019-06-15T00:11:47.577Z,22.84
2019-06-15T00:12:47.028Z,22.81
2019-06-15T00:13:47.053Z,22.84
2019-06-15T00:14:47.354Z,22.81
2019-06-15T00:15:47.105Z,22.84
2019-06-15T00:16:47.390Z,22.84
2019-06-15T00:17:47.440Z,22.83
2019-06-15T00:18:47.703Z,22.85
2019-06-15T00:19:47.729Z,22.91
2019-06-15T00:20:47.487Z,22.83
2019-06-15T00:21:47.516Z,22.8
2019-06-15T00:22:47.809Z,22.84
2019-06-15T00:23:47.584Z,22.83
2019-06-15T00:24:47.340Z,22.78
2019-06-15T00:25:47.622Z,22.88
2019-06-15T00:26:47.645Z,22.91
2019-06-15T00:27:47.726Z,22.85
2019-06-15T00:28:47.697Z,22.75
2019-06-15T00:29:47.470Z,22.78
2019-06-15T00:30:48.031Z,22.72
2019-06-15T00:31:47.799Z,22.72
2019-06-15T00:32:48.096Z,22.84
2019-06-15T00:33:47.828Z,22.73
2019-06-15T00:34:47.843Z,22.76
2019-06-15T00:35:48.138Z,22.84
2019-06-15T00:36:48.205Z,22.76
2019-06-15T00:37:47.928Z,22.76
2019-06-15T00:38:48.236Z,22.8
2019-06-15T00:39:48.243Z,22.69
2019-06-15T00:40:47.993Z,22.76
2019-06-15T00:41:48.322Z,22.78
2019-06-15T00:42:48.310Z,22.78
2019-06-15T00:43:48.071Z,22.68
2019-06-15T00:44:48.096Z,22.73
2019-06-15T00:45:47.869Z,22.75
2019-06-15T00:46:48.154Z,22.7
2019-06-15T00:47:47.921Z,22.63
2019-06-15T00:48:48.463Z,22.69
2019-06-15T00:49:47.962Z,22.75
2019-06-15T00:50:48.250Z,22.73
2019-06-15T00:51:48.545Z,22.59
2019-06-15T00:52:48.311Z,22.72
2019-06-15T00:53:48.337Z,22.57
2019-06-15T00:54:55.384Z,22.69
2019-06-15T00:55:48.382Z,22.66
2019-06-15T00:56:48.400Z,22.66
2019-06-15T00:57:48.559Z,22.63
2019-06-15T00:58:48.473Z,22.62
2019-06-15T00:59:48.523Z,22.6
2019-06-15T01:00:48.499Z,22.53
2019-06-15T01:01:48.814Z,22.59
2019-06-15T01:02:48.825Z,22.54
2019-06-15T01:03:48.836Z,22.62
2019-06-15T01:04:48.627Z,22.62
2019-06-15T01:05:48.900Z,22.62
2019-06-15T01:06:48.659Z,22.57
2019-06-15T01:07:48.682Z,22.63
2019-06-15T01:08:48.777Z,22.62
2019-06-15T01:09:48.991Z,22.59
2019-06-15T01:10:48.773Z,22.53
2019-06-15T01:11:48.526Z,22.53
2019-06-15T01:12:48.806Z,22.55
2019-06-15T01:13:48.835Z,22.47
2019-06-15T01:14:48.598Z,22.47
2019-06-15T01:15:48.890Z,22.44
2019-06-15T01:16:49.188Z,22.48
2019-06-15T01:17:49.193Z,22.5
2019-06-15T01:18:48.972Z,22.53
2019-06-15T01:19:48.989Z,22.44
2019-06-15T01:20:49.267Z,22.45
2019-06-15T01:21:49.292Z,22.47
2019-06-15T01:22:49.061Z,22.38
2019-06-15T01:23:48.823Z,22.41
2019-06-15T01:24:49.372Z,22.39
2019-06-15T01:25:49.666Z,22.38
2019-06-15T01:26:49.420Z,22.36
2019-06-15T01:27:49.185Z,22.36
2019-06-15T01:28:48.956Z,22.36
2019-06-15T01:29:48.978Z,22.39
2019-06-15T01:30:49.004Z,22.44
2019-06-15T01:31:49.555Z,22.36
2019-06-15T01:32:49.307Z,22.39
2019-06-15T01:33:49.603Z,22.38
2019-06-15T01:34:49.371Z,22.39
2019-06-15T01:35:49.392Z,22.43
2019-06-15T01:36:49.182Z,22.41
2019-06-15T01:37:49.175Z,22.44
2019-06-15T01:38:49.212Z,22.33
2019-06-15T01:39:49.811Z,22.36
2019-06-15T01:40:49.552Z,22.43
2019-06-15T01:41:49.282Z,22.41
2019-06-15T01:42:49.563Z,22.36
2019-06-15T01:43:49.619Z,22.38
2019-06-15T01:44:49.881Z,22.39
2019-06-15T01:45:49.653Z,22.33
2019-06-15T01:46:49.921Z,22.36
2019-06-15T01:47:49.695Z,22.33
2019-06-15T01:48:49.454Z,22.38
2019-06-15T01:49:50.003Z,22.39
2019-06-15T01:50:49.763Z,22.35
2019-06-15T01:51:49.818Z,22.39
2019-06-15T01:52:49.813Z,22.29
2019-06-15T01:53:50.240Z,22.25
2019-06-15T01:54:50.123Z,22.23
2019-06-15T01:55:50.156Z,22.28
2019-06-15T01:56:49.914Z,22.26
2019-06-15T01:57:49.970Z,22.35
2019-06-15T01:58:49.984Z,22.3
2019-06-15T01:59:50.247Z,22.28
2019-06-15T02:00:50.275Z,22.25
2019-06-15T02:01:50.036Z,22.29
2019-06-15T02:02:50.078Z,22.18
2019-06-15T02:03:49.827Z,22.25
2019-06-15T02:04:50.378Z,22.23
2019-06-15T02:05:50.408Z,22.25
2019-06-15T02:06:50.165Z,22.18
2019-06-15T02:07:50.448Z,22.14
2019-06-15T02:08:50.218Z,22.17
2019-06-15T02:09:50.500Z,22.15
2019-06-15T02:10:50.605Z,22.13
2019-06-15T02:11:50.695Z,22.13
2019-06-15T02:12:50.576Z,22.14
2019-06-15T02:13:50.623Z,22.2
2019-06-15T02:14:50.404Z,22.08
2019-06-15T02:15:50.684Z,22.04
2019-06-15T02:16:50.680Z,22.17
2019-06-15T02:17:50.476Z,22.08
2019-06-15T02:18:50.733Z,22.11
2019-06-15T02:19:50.760Z,22.06
2019-06-15T02:20:50.527Z,22.08
2019-06-15T02:21:50.578Z,21.95
2019-06-15T02:22:50.354Z,22.04
2019-06-15T02:23:50.860Z,22.07
2019-06-15T02:24:50.729Z,21.95
2019-06-15T02:25:50.641Z,22.06
2019-06-15T02:26:50.935Z,21.98
2019-06-15T02:27:50.740Z,22.11
2019-06-15T02:28:51.001Z,21.98
2019-06-15T02:29:50.478Z,22.07
2019-06-15T02:30:51.033Z,21.98
2019-06-15T02:31:51.065Z,21.99
2019-06-15T02:32:51.091Z,22.07
2019-06-15T02:33:50.840Z,22.07
2019-06-15T02:34:51.137Z,21.98
2019-06-15T02:35:50.647Z,22.08
2019-06-15T02:36:51.186Z,21.96
2019-06-15T02:37:50.949Z,22.07
2019-06-15T02:38:51.233Z,22.13
2019-06-15T02:39:51.253Z,22.06
2019-06-15T02:40:51.303Z,22.1
2019-06-15T02:41:51.069Z,22.02
2019-06-15T02:42:51.333Z,22.07
2019-06-15T02:43:51.100Z,21.96
2019-06-15T02:44:51.375Z,22.02
2019-06-15T02:45:51.428Z,21.91
2019-06-15T02:46:51.461Z,21.99
2019-06-15T02:47:50.943Z,21.99
2019-06-15T02:48:51.478Z,21.95
2019-06-15T02:49:51.504Z,21.96
2019-06-15T02:50:51.538Z,21.98
2019-06-15T02:51:51.059Z,21.98
2019-06-15T02:52:51.322Z,21.93
2019-06-15T02:53:51.344Z,21.93
2019-06-15T02:54:51.648Z,21.93
2019-06-15T02:55:55.480Z,21.91
2019-06-15T02:56:51.677Z,21.85
2019-06-15T02:57:51.699Z,21.8
2019-06-15T02:58:51.464Z,21.88
2019-06-15T02:59:51.486Z,21.85
2019-06-15T03:00:51.515Z,21.83
2019-06-15T03:01:51.799Z,21.83
2019-06-15T03:02:51.887Z,21.82
2019-06-15T03:03:51.608Z,21.79
2019-06-15T03:04:51.624Z,21.85
2019-06-15T03:05:51.374Z,21.82
2019-06-15T03:06:51.697Z,21.8
2019-06-15T03:07:51.688Z,21.76
2019-06-15T03:08:51.457Z,21.77
2019-06-15T03:09:51.736Z,21.67
2019-06-15T03:10:52.015Z,21.7
2019-06-15T03:11:52.060Z,21.67
2019-06-15T03:12:51.811Z,21.75
2019-06-15T03:13:51.576Z,21.7
2019-06-15T03:14:51.868Z,21.7
2019-06-15T03:15:52.151Z,21.73
2019-06-15T03:16:52.182Z,21.72
2019-06-15T03:17:52.197Z,21.7
2019-06-15T03:18:52.226Z,21.7
2019-06-15T03:19:51.988Z,21.73
2019-06-15T03:20:51.753Z,21.67
2019-06-15T03:21:52.295Z,21.76
2019-06-15T03:22:52.333Z,21.72
2019-06-15T03:23:52.085Z,21.72
2019-06-15T03:24:52.113Z,21.75
2019-06-15T03:26:06.808Z,21.76
2019-06-15T03:26:52.171Z,21.64
2019-06-15T03:27:52.208Z,21.72
2019-06-15T03:28:52.471Z,21.66
2019-06-15T03:29:52.514Z,21.62
2019-06-15T03:30:52.523Z,21.7
2019-06-15T03:31:52.299Z,21.69
2019-06-15T03:32:52.618Z,21.7
2019-06-15T03:33:52.617Z,21.62
2019-06-15T03:34:52.363Z,21.7
2019-06-15T03:35:52.406Z,21.62
2019-06-15T03:36:52.174Z,21.67
2019-06-15T03:37:52.445Z,21.75
2019-06-15T03:38:52.454Z,21.67
2019-06-15T03:39:52.483Z,21.7
2019-06-15T03:40:52.776Z,21.58
2019-06-15T03:41:52.534Z,21.58
2019-06-15T03:42:52.562Z,21.6
2019-06-15T03:43:52.320Z,21.64
2019-06-15T03:44:52.699Z,21.57
2019-06-15T03:45:52.655Z,21.58
2019-06-15T03:46:52.932Z,21.58
2019-06-15T03:47:52.713Z,21.6
2019-06-15T03:48:52.709Z,21.54
2019-06-15T03:49:52.823Z,21.64
2019-06-15T03:50:53.127Z,21.6
2019-06-15T03:51:52.781Z,21.64
2019-06-15T03:52:53.150Z,21.64
2019-06-15T03:53:53.093Z,21.54
2019-06-15T03:54:52.593Z,21.61
2019-06-15T03:55:52.621Z,21.55
2019-06-15T03:56:52.951Z,21.58
2019-06-15T03:57:53.313Z,21.61
2019-06-15T03:58:52.695Z,21.57
2019-06-15T03:59:52.981Z,21.55
2019-06-15T04:00:52.745Z,21.48
2019-06-15T04:01:53.127Z,21.46
2019-06-15T04:02:53.317Z,21.55
2019-06-15T04:03:53.340Z,21.51
2019-06-15T04:04:54.860Z,21.48
2019-06-15T04:05:53.383Z,21.54
2019-06-15T04:06:53.150Z,21.46
2019-06-15T04:07:53.178Z,21.48
2019-06-15T04:08:52.947Z,21.51
2019-06-15T04:09:53.232Z,21.48
2019-06-15T04:10:53.254Z,21.57
2019-06-15T04:11:53.594Z,21.57
2019-06-15T04:12:53.296Z,21.54
2019-06-15T04:13:53.328Z,21.54
2019-06-15T04:14:53.106Z,21.58
2019-06-15T04:15:53.400Z,21.62
2019-06-15T04:16:53.401Z,21.6
2019-06-15T04:17:53.798Z,21.61
2019-06-15T04:18:53.451Z,21.67
2019-06-15T04:19:53.476Z,21.7
2019-06-15T04:20:53.771Z,21.69
2019-06-15T04:21:53.790Z,21.69
2019-06-15T04:22:53.898Z,21.73
2019-06-15T04:23:53.571Z,21.6
2019-06-15T04:24:53.631Z,21.67
2019-06-15T04:25:53.929Z,21.73
2019-06-15T04:26:53.388Z,21.62
2019-06-15T04:27:53.410Z,21.69
2019-06-15T04:28:53.445Z,21.73
2019-06-15T04:29:53.716Z,21.79
2019-06-15T04:30:54.012Z,21.76
2019-06-15T04:31:53.781Z,21.73
2019-06-15T04:32:53.543Z,21.8
2019-06-15T04:33:53.818Z,21.82
2019-06-15T04:34:54.107Z,21.79
2019-06-15T04:35:54.125Z,21.8
2019-06-15T04:36:54.192Z,21.85
2019-06-15T04:37:53.948Z,21.85
2019-06-15T04:38:53.947Z,21.79
2019-06-15T04:39:54.235Z,21.82
2019-06-15T04:40:53.753Z,21.88
2019-06-15T04:41:54.017Z,21.91
2019-06-15T04:42:54.309Z,21.91
2019-06-15T04:43:54.067Z,21.95
2019-06-15T04:44:54.361Z,21.95
2019-06-15T04:45:54.126Z,21.96
2019-06-15T04:46:54.141Z,21.96
2019-06-15T04:47:54.176Z,21.95
2019-06-15T04:48:54.221Z,21.93
2019-06-15T04:49:54.237Z,21.93
2019-06-15T04:50:54.507Z,21.93
2019-06-15T04:51:54.277Z,21.85
2019-06-15T04:52:54.559Z,21.95
2019-06-15T04:53:54.573Z,21.82
2019-06-15T04:54:54.344Z,21.85
2019-06-15T04:55:54.626Z,21.85
2019-06-15T04:56:55.941Z,21.88
2019-06-15T04:57:54.865Z,21.85
2019-06-15T04:58:54.456Z,21.83
2019-06-15T04:59:54.493Z,21.85
2019-06-15T05:00:54.757Z,21.85
2019-06-15T05:01:54.779Z,21.82
2019-06-15T05:02:54.537Z,21.79
2019-06-15T05:03:54.598Z,21.83
2019-06-15T05:04:54.878Z,21.85
2019-06-15T05:05:54.887Z,21.82
2019-06-15T05:06:54.645Z,21.79
2019-06-15T05:07:54.932Z,21.8
2019-06-15T05:08:54.973Z,21.82
2019-06-15T05:09:54.463Z,21.85
2019-06-15T05:10:59.576Z,21.85
2019-06-15T05:11:54.758Z,21.85
2019-06-15T05:12:54.537Z,21.83
2019-06-15T05:13:54.844Z,21.88
2019-06-15T05:14:54.835Z,21.79
2019-06-15T05:15:54.874Z,21.82
2019-06-15T05:16:55.167Z,21.77
2019-06-15T05:17:55.205Z,21.77
2019-06-15T05:18:55.193Z,21.91
2019-06-15T05:19:54.699Z,21.8
2019-06-15T05:20:55.250Z,21.82
2019-06-15T05:21:55.160Z,21.93
2019-06-15T05:22:54.777Z,21.91
2019-06-15T05:23:55.160Z,21.99
2019-06-15T05:24:55.148Z,21.89
2019-06-15T05:25:55.113Z,21.96
2019-06-15T05:27:10.064Z,21.95
2019-06-15T05:27:55.450Z,21.93
2019-06-15T05:28:55.181Z,21.98
2019-06-15T05:29:56.630Z,21.98
2019-06-15T05:30:54.978Z,21.99
2019-06-15T05:31:55.523Z,21.99
2019-06-15T05:32:55.283Z,22.02
2019-06-15T05:33:55.576Z,22
2019-06-15T05:34:55.333Z,22.1
2019-06-15T05:35:55.102Z,21.98
2019-06-15T05:36:55.382Z,21.98
2019-06-15T05:37:55.674Z,22.1
2019-06-15T05:38:55.684Z,22.07
2019-06-15T05:39:55.457Z,22.11
2019-06-15T05:40:55.765Z,22.04
2019-06-15T05:41:55.767Z,21.99
2019-06-15T05:42:55.811Z,22.14
2019-06-15T05:43:55.819Z,22.07
2019-06-15T05:44:55.840Z,22.06
2019-06-15T05:45:55.866Z,22.13
2019-06-15T05:46:55.375Z,22.18
2019-06-15T05:47:55.397Z,22.15
2019-06-15T05:48:55.945Z,22.15
2019-06-15T05:49:55.967Z,22.11
2019-06-15T05:50:58.458Z,22.18
2019-06-15T05:51:56.019Z,22.15
2019-06-15T05:52:55.528Z,22.23
2019-06-15T05:53:55.804Z,22.3
2019-06-15T05:54:56.099Z,22.2
2019-06-15T05:55:56.130Z,22.28
2019-06-15T05:56:55.896Z,22.3
2019-06-15T05:57:55.651Z,22.29
2019-06-15T05:58:56.194Z,22.28
2019-06-15T05:59:56.275Z,22.28
2019-06-15T06:00:55.978Z,22.33
2019-06-15T06:01:56.275Z,22.3
2019-06-15T06:02:56.346Z,22.35
2019-06-15T06:03:56.337Z,22.38
2019-06-15T06:04:56.123Z,22.39
2019-06-15T06:05:55.850Z,22.38
2019-06-15T06:06:56.400Z,22.39
2019-06-15T06:07:56.169Z,22.43
2019-06-15T06:08:56.455Z,22.47
2019-06-15T06:09:56.515Z,22.38
2019-06-15T06:10:56.245Z,22.5
2019-06-15T06:11:56.262Z,22.47
2019-06-15T06:12:56.286Z,22.51
2019-06-15T06:13:56.594Z,22.51
2019-06-15T06:14:56.340Z,22.59
2019-06-15T06:15:56.493Z,22.66
2019-06-15T06:16:56.386Z,22.62
2019-06-15T06:17:56.675Z,22.66
2019-06-15T06:18:56.484Z,22.65
2019-06-15T06:19:56.461Z,22.75
2019-06-15T06:20:56.749Z,22.76
2019-06-15T06:21:58.291Z,22.69
2019-06-15T06:22:56.535Z,22.85
2019-06-15T06:23:56.825Z,22.8
2019-06-15T06:24:56.584Z,22.76
2019-06-15T06:25:56.882Z,22.76
2019-06-15T06:26:56.899Z,22.9
2019-06-15T06:27:56.918Z,22.75
2019-06-15T06:29:02.338Z,22.85
2019-06-15T06:29:56.982Z,22.76
2019-06-15T06:30:56.736Z,22.76
2019-06-15T06:31:57.026Z,22.76
2019-06-15T06:32:56.818Z,22.76
2019-06-15T06:33:57.070Z,22.8
2019-06-15T06:34:56.839Z,22.83
2019-06-15T06:35:56.908Z,22.85
2019-06-15T06:36:56.627Z,22.83
2019-06-15T06:37:57.195Z,22.8
2019-06-15T06:38:56.952Z,22.83
2019-06-15T06:39:56.706Z,22.81
2019-06-15T06:40:56.994Z,22.83
2019-06-15T06:41:56.751Z,22.83
2019-06-15T06:42:57.335Z,22.93
2019-06-15T06:43:57.352Z,22.91
2019-06-15T06:44:57.104Z,22.84
2019-06-15T06:45:57.561Z,22.88
2019-06-15T06:46:57.344Z,22.88
2019-06-15T06:47:57.314Z,22.91
2019-06-15T06:48:57.196Z,22.94
2019-06-15T06:49:57.330Z,22.88
2019-06-15T06:50:57.568Z,22.93
2019-06-15T06:51:57.529Z,22.87
2019-06-15T06:52:57.299Z,22.9
2019-06-15T06:53:57.318Z,22.96
2019-06-15T06:54:57.611Z,22.88
2019-06-15T06:55:57.397Z,22.96
2019-06-15T06:56:57.411Z,22.93
2019-06-15T06:58:01.538Z,22.91
2019-06-15T06:58:57.182Z,22.96
2019-06-15T06:59:57.733Z,22.93
2019-06-15T07:00:57.579Z,22.94
2019-06-15T07:01:57.780Z,22.81
2019-06-15T07:02:57.576Z,22.9
2019-06-15T07:03:57.570Z,22.9
2019-06-15T07:04:57.873Z,22.94
2019-06-15T07:05:57.881Z,22.96
2019-06-15T07:06:57.382Z,22.83
2019-06-15T07:07:57.413Z,22.94
2019-06-15T07:08:57.440Z,22.93
2019-06-15T07:09:57.774Z,22.98
2019-06-15T07:10:57.754Z,22.93
2019-06-15T07:11:57.768Z,22.93
2019-06-15T07:12:57.807Z,22.94
2019-06-15T07:13:58.083Z,22.91
2019-06-15T07:14:58.113Z,22.91
2019-06-15T07:15:58.141Z,22.88
2019-06-15T07:16:58.168Z,23
2019-06-15T07:17:57.921Z,22.96
2019-06-15T07:18:57.959Z,22.91
2019-06-15T07:19:58.235Z,22.91
2019-06-15T07:20:58.257Z,23.02
2019-06-15T07:21:58.286Z,23.05
2019-06-15T07:22:58.049Z,23.05
2019-06-15T07:23:57.847Z,22.99
2019-06-15T07:24:58.107Z,23.03
2019-06-15T07:25:57.865Z,23.02
2019-06-15T07:26:58.151Z,23.02
2019-06-15T07:28:12.256Z,23.06
2019-06-15T07:28:57.945Z,23.08
2019-06-15T07:29:58.493Z,23.06
2019-06-15T07:30:58.255Z,23.02
2019-06-15T07:31:58.279Z,23.09
2019-06-15T07:32:58.310Z,23.06
2019-06-15T07:33:58.072Z,23.09
2019-06-15T07:34:58.619Z,23.09
2019-06-15T07:35:58.644Z,23.06
2019-06-15T07:37:01.401Z,23.09
2019-06-15T07:37:58.434Z,23.02
2019-06-15T07:38:58.228Z,23.02
2019-06-15T07:39:58.802Z,23.05
2019-06-15T07:40:58.509Z,23.03
2019-06-15T07:41:58.798Z,23.03
2019-06-15T07:42:58.563Z,22.94
2019-06-15T07:43:58.856Z,22.94
2019-06-15T07:44:58.878Z,22.87
2019-06-15T07:45:58.925Z,22.94
2019-06-15T07:46:58.918Z,22.88
2019-06-15T07:47:58.964Z,22.9
2019-06-15T07:48:58.978Z,22.96
2019-06-15T07:49:58.743Z,22.96
2019-06-15T07:50:58.762Z,22.96
2019-06-15T07:51:59.151Z,22.91
2019-06-15T07:52:59.081Z,22.93
2019-06-15T07:53:58.630Z,22.9
2019-06-15T07:54:58.872Z,22.91
2019-06-15T07:55:59.181Z,22.96
2019-06-15T07:56:58.649Z,22.88
2019-06-15T07:57:58.945Z,22.91
2019-06-15T07:58:59.056Z,22.91
2019-06-15T07:59:58.992Z,22.96
2019-06-15T08:00:59.283Z,22.93
2019-06-15T08:01:59.311Z,22.85
2019-06-15T08:02:59.328Z,22.88
2019-06-15T08:03:59.115Z,22.99
2019-06-15T08:04:59.387Z,22.87
2019-06-15T08:05:59.144Z,22.88
2019-06-15T08:06:58.906Z,22.91
2019-06-15T08:07:59.196Z,22.94
2019-06-15T08:08:59.234Z,22.9
2019-06-15T08:09:59.243Z,22.93
2019-06-15T08:10:59.013Z,22.91
2019-06-15T08:11:59.556Z,22.98
2019-06-15T08:12:59.367Z,22.91
2019-06-15T08:13:59.357Z,22.98
2019-06-15T08:14:59.629Z,22.96
2019-06-15T08:15:59.135Z,23.02
2019-06-15T08:16:59.682Z,23.05
2019-06-15T08:17:59.185Z,23.02
2019-06-15T08:18:59.742Z,23.05
2019-06-15T08:19:59.763Z,23.05
2019-06-15T08:20:59.791Z,23.09
2019-06-15T08:21:59.551Z,23.02
2019-06-15T08:22:59.622Z,23.05
2019-06-15T08:23:59.705Z,23.03
2019-06-15T08:24:59.624Z,22.99
2019-06-15T08:25:59.923Z,23.02
2019-06-15T08:26:59.728Z,23.08
2019-06-15T08:27:59.703Z,23.03
2019-06-15T08:28:59.756Z,23.03
2019-06-15T08:29:59.495Z,23.05
2019-06-15T08:31:00.069Z,23.03
2019-06-15T08:31:59.983Z,23.1
2019-06-15T08:32:59.882Z,23.03
2019-06-15T08:33:59.856Z,23.06
2019-06-15T08:35:00.264Z,23.05
2019-06-15T08:36:02.297Z,23.08
2019-06-15T08:36:59.941Z,23
2019-06-15T08:37:59.977Z,23.05
2019-06-15T08:38:59.981Z,23.06
2019-06-15T08:40:00.462Z,23
2019-06-15T08:41:00.031Z,23.05
2019-06-15T08:42:01.894Z,23.06
2019-06-15T08:43:00.099Z,23.1
2019-06-15T08:44:00.378Z,23.12
2019-06-15T08:45:00.161Z,23.08
2019-06-15T08:46:00.167Z,23.17
2019-06-15T08:47:01.921Z,23.09
2019-06-15T08:48:00.474Z,23.2
2019-06-15T08:49:00.510Z,23.17
2019-06-15T08:50:00.560Z,23.21
2019-06-15T08:51:00.563Z,23.15
2019-06-15T08:52:03.343Z,23.12
2019-06-15T08:53:00.614Z,23.27
2019-06-15T08:54:00.634Z,23.27
2019-06-15T08:55:00.689Z,23.21
2019-06-15T08:56:00.428Z,23.23
2019-06-15T08:57:00.457Z,23.24
2019-06-15T08:58:00.466Z,23.28
2019-06-15T08:59:00.904Z,23.24
2019-06-15T09:00:00.784Z,23.27
2019-06-15T09:01:00.881Z,23.32
2019-06-15T09:02:01.021Z,23.31
2019-06-15T09:03:00.863Z,23.34
2019-06-15T09:04:00.653Z,23.28
2019-06-15T09:05:00.654Z,23.36
2019-06-15T09:06:00.696Z,23.34
2019-06-15T09:07:00.741Z,23.36
2019-06-15T09:08:00.762Z,23.41
2019-06-15T09:09:01.031Z,23.43
2019-06-15T09:10:00.775Z,23.5
2019-06-15T09:11:00.542Z,23.46
2019-06-15T09:12:00.831Z,23.5
2019-06-15T09:13:00.592Z,23.44
2019-06-15T09:14:00.624Z,23.48
2019-06-15T09:15:00.909Z,23.5
2019-06-15T09:16:01.199Z,23.51
2019-06-15T09:17:00.956Z,23.48
2019-06-15T09:18:01.249Z,23.51
2019-06-15T09:19:02.464Z,23.44
2019-06-15T09:20:00.778Z,23.48
2019-06-15T09:21:00.810Z,23.43
2019-06-15T09:22:01.114Z,23.48
2019-06-15T09:23:01.384Z,23.56
2019-06-15T09:24:01.141Z,23.56
2019-06-15T09:25:01.161Z,23.48
2019-06-15T09:26:00.970Z,23.48
2019-06-15T09:27:01.476Z,23.46
2019-06-15T09:28:01.603Z,23.5
2019-06-15T09:29:15.318Z,23.5
2019-06-15T09:30:01.307Z,23.5
2019-06-15T09:31:01.611Z,23.55
2019-06-15T09:32:01.625Z,23.51
2019-06-15T09:33:01.377Z,23.54
2019-06-15T09:34:01.688Z,23.44
2019-06-15T09:35:01.726Z,23.51
2019-06-15T09:36:01.183Z,23.54
2019-06-15T09:37:01.744Z,23.44
2019-06-15T09:38:01.805Z,23.54
2019-06-15T09:39:01.532Z,23.48
2019-06-15T09:40:01.989Z,23.48
2019-06-15T09:41:01.845Z,23.48
2019-06-15T09:42:01.620Z,23.51
2019-06-15T09:43:01.886Z,23.55
2019-06-15T09:44:01.928Z,23.54
2019-06-15T09:45:01.965Z,23.62
2019-06-15T09:46:01.708Z,23.62
2019-06-15T09:47:01.744Z,23.59
2019-06-15T09:48:01.761Z,23.66
2019-06-15T09:49:01.793Z,23.65
2019-06-15T09:50:01.807Z,23.68
2019-06-15T09:51:01.931Z,23.73
2019-06-15T09:52:02.118Z,23.73
2019-06-15T09:53:01.904Z,23.8
2019-06-15T09:54:02.187Z,23.71
2019-06-15T09:55:02.207Z,23.76
2019-06-15T09:56:02.237Z,23.83
2019-06-15T09:57:01.992Z,23.8
2019-06-15T09:58:02.020Z,23.86
2019-06-15T09:59:02.047Z,23.83
2019-06-15T10:00:02.240Z,23.83
2019-06-15T10:01:02.363Z,23.86
2019-06-15T10:02:02.383Z,23.83
2019-06-15T10:03:02.524Z,23.84
2019-06-15T10:04:02.504Z,23.81
2019-06-15T10:05:02.196Z,23.86
2019-06-15T10:06:02.258Z,23.81
2019-06-15T10:07:02.509Z,23.78
2019-06-15T10:08:02.625Z,23.74
2019-06-15T10:09:02.042Z,23.77
2019-06-15T10:10:02.585Z,23.73
2019-06-15T10:11:02.619Z,23.66
2019-06-15T10:12:02.585Z,23.71
2019-06-15T10:13:02.670Z,23.66
2019-06-15T10:14:02.430Z,23.63
2019-06-15T10:15:02.729Z,23.66
2019-06-15T10:16:02.502Z,23.59
2019-06-15T10:17:02.868Z,23.63
2019-06-15T10:18:02.549Z,23.68
2019-06-15T10:19:02.823Z,23.69
2019-06-15T10:20:02.580Z,23.74
2019-06-15T10:21:02.353Z,23.74
2019-06-15T10:22:02.813Z,23.8
2019-06-15T10:23:03.024Z,23.81
2019-06-15T10:24:02.693Z,23.76
2019-06-15T10:25:02.986Z,23.86
2019-06-15T10:26:02.780Z,23.83
2019-06-15T10:27:03.130Z,23.87
2019-06-15T10:28:02.790Z,23.95
2019-06-15T10:29:02.554Z,23.84
2019-06-15T10:30:02.843Z,23.87
2019-06-15T10:31:05.395Z,23.91
2019-06-15T10:32:03.201Z,23.87
2019-06-15T10:33:03.194Z,23.96
2019-06-15T10:34:03.221Z,23.92
2019-06-15T10:35:02.976Z,23.96
2019-06-15T10:36:02.998Z,23.91
2019-06-15T10:37:03.380Z,24.03
2019-06-15T10:38:03.054Z,24.03
2019-06-15T10:39:03.331Z,24.02
2019-06-15T10:40:03.394Z,24.01
2019-06-15T10:41:03.134Z,24.02
2019-06-15T10:42:03.429Z,24.05
2019-06-15T10:43:03.438Z,24.01
2019-06-15T10:44:03.257Z,24.02
2019-06-15T10:45:03.009Z,24.05
2019-06-15T10:46:03.523Z,24.03
2019-06-15T10:47:03.316Z,23.96
2019-06-15T10:48:03.310Z,23.98
2019-06-15T10:49:03.653Z,23.99
2019-06-15T10:50:03.364Z,24.05
2019-06-15T10:51:03.424Z,24.01
2019-06-15T10:52:03.431Z,23.98
2019-06-15T10:53:03.441Z,24.03
2019-06-15T10:54:04.806Z,24.03
2019-06-15T10:55:03.790Z,23.99
2019-06-15T10:56:03.779Z,24.03
2019-06-15T10:57:03.554Z,24.03
2019-06-15T10:58:03.568Z,23.99
2019-06-15T10:59:03.596Z,24.08
2019-06-15T11:00:03.987Z,24.02
2019-06-15T11:01:03.808Z,24.03
2019-06-15T11:02:03.690Z,24.05
2019-06-15T11:03:04.025Z,24.11
2019-06-15T11:04:03.989Z,24.08
2019-06-15T11:05:04.017Z,24.13
2019-06-15T11:06:03.520Z,24.17
2019-06-15T11:07:03.806Z,24.14
2019-06-15T11:08:03.837Z,24.21
2019-06-15T11:09:03.878Z,24.18
2019-06-15T11:10:04.147Z,24.3
2019-06-15T11:11:04.227Z,24.21
2019-06-15T11:12:04.236Z,24.29
2019-06-15T11:13:04.254Z,24.33
2019-06-15T11:14:04.252Z,24.28
2019-06-15T11:15:04.020Z,24.28
2019-06-15T11:16:04.036Z,24.29
2019-06-15T11:17:04.071Z,24.29
2019-06-15T11:18:04.253Z,24.16
2019-06-15T11:19:04.388Z,24.24
2019-06-15T11:20:04.424Z,24.24
2019-06-15T11:21:04.172Z,24.28
2019-06-15T11:22:04.470Z,24.23
2019-06-15T11:23:04.223Z,24.29
2019-06-15T11:24:04.295Z,24.32
2019-06-15T11:25:04.285Z,24.3
2019-06-15T11:26:04.401Z,24.32
2019-06-15T11:27:04.592Z,24.38
2019-06-15T11:28:04.895Z,24.42
2019-06-15T11:29:04.643Z,24.48
2019-06-15T11:30:17.500Z,24.5
2019-06-15T11:31:04.691Z,24.54
2019-06-15T11:32:04.468Z,24.51
2019-06-15T11:33:04.504Z,24.48
2019-06-15T11:34:04.782Z,24.55
2019-06-15T11:35:04.544Z,24.6
2019-06-15T11:36:04.864Z,24.63
2019-06-15T11:37:04.327Z,24.63
2019-06-15T11:38:04.956Z,24.63
2019-06-15T11:39:04.657Z,24.66
2019-06-15T11:40:04.677Z,24.73
2019-06-15T11:41:04.449Z,24.68
2019-06-15T11:42:04.774Z,24.65
2019-06-15T11:43:05.006Z,24.73
2019-06-15T11:44:04.775Z,24.69
2019-06-15T11:45:05.103Z,24.69
2019-06-15T11:46:04.835Z,24.68
2019-06-15T11:47:05.128Z,24.74
2019-06-15T11:48:04.623Z,24.74
2019-06-15T11:49:05.181Z,24.69
2019-06-15T11:50:05.211Z,24.7
2019-06-15T11:51:05.224Z,24.66
2019-06-15T11:52:04.985Z,24.73
2019-06-15T11:53:05.285Z,24.7
2019-06-15T11:54:05.076Z,24.63
2019-06-15T11:55:05.079Z,24.66
2019-06-15T11:56:05.096Z,24.6
2019-06-15T11:57:05.381Z,24.65
2019-06-15T11:58:05.170Z,24.61
2019-06-15T11:59:04.932Z,24.65
2019-06-15T12:00:04.935Z,24.66
2019-06-15T12:01:05.483Z,24.53
2019-06-15T12:02:05.574Z,24.54
2019-06-15T12:03:05.330Z,24.54
2019-06-15T12:04:05.042Z,24.55
2019-06-15T12:05:05.582Z,24.54
2019-06-15T12:06:05.611Z,24.53
2019-06-15T12:07:05.387Z,24.5
2019-06-15T12:08:05.409Z,24.63
2019-06-15T12:09:05.435Z,24.61
2019-06-15T12:10:05.914Z,24.63
2019-06-15T12:11:05.741Z,24.68
2019-06-15T12:12:05.766Z,24.69
2019-06-15T12:13:05.535Z,24.73
2019-06-15T12:14:05.847Z,24.78
2019-06-15T12:15:05.870Z,24.7
2019-06-15T12:16:05.664Z,24.8
2019-06-15T12:17:05.698Z,24.78
2019-06-15T12:18:05.932Z,24.78
2019-06-15T12:19:05.692Z,24.8
2019-06-15T12:20:05.719Z,24.74
2019-06-15T12:21:06.037Z,24.7
2019-06-15T12:22:05.768Z,24.7
2019-06-15T12:23:05.845Z,24.78
2019-06-15T12:24:05.823Z,24.85
2019-06-15T12:25:05.890Z,24.8
2019-06-15T12:26:06.147Z,24.78
2019-06-15T12:27:06.225Z,24.77
2019-06-15T12:28:05.933Z,24.76
2019-06-15T12:29:07.877Z,24.84
2019-06-15T12:30:06.287Z,24.81
2019-06-15T12:31:06.024Z,24.85
2019-06-15T12:32:06.048Z,24.86
2019-06-15T12:33:06.205Z,24.81
2019-06-15T12:34:05.835Z,24.81
2019-06-15T12:35:06.117Z,24.85
2019-06-15T12:36:20.673Z,24.84
2019-06-15T12:37:06.441Z,24.77
2019-06-15T12:38:06.461Z,24.78
2019-06-15T12:39:05.966Z,24.73
2019-06-15T12:40:06.299Z,24.81
2019-06-15T12:41:06.014Z,24.76
2019-06-15T12:42:06.568Z,24.76
2019-06-15T12:43:06.325Z,24.8
2019-06-15T12:44:06.364Z,24.73
2019-06-15T12:45:06.784Z,24.74
2019-06-15T12:46:06.418Z,24.86
2019-06-15T12:47:06.697Z,24.76
2019-06-15T12:48:06.537Z,24.88
2019-06-15T12:49:06.792Z,24.85
2019-06-15T12:50:06.775Z,24.78
2019-06-15T12:51:06.283Z,24.86
2019-06-15T12:52:06.819Z,24.77
2019-06-15T12:53:06.588Z,24.88
2019-06-15T12:54:06.669Z,24.84
2019-06-15T12:55:06.920Z,24.92
2019-06-15T12:56:06.929Z,24.88